createdAt,value
2018-03-29T00:00:25.178Z,3.34
2018-03-29T00:01:25.075Z,3.31
2018-03-29T00:02:24.972Z,3.37
2018-03-29T00:03:24.870Z,3.32
2018-03-29T00:04:24.753Z,3.32
2018-03-29T00:05:24.649Z,3.40
2018-03-29T00:06:24.545Z,3.41
2018-03-29T00:07:24.442Z,3.40
2018-03-29T00:08:24.335Z,3.31
2018-03-29T00:09:24.224Z,3.40
2018-03-29T00:10:24.120Z,3.40
2018-03-29T00:11:24.018Z,3.28
2018-03-29T00:12:23.914Z,3.31
2018-03-29T00:13:23.799Z,3.36
2018-03-29T00:14:23.694Z,3.26
2018-03-29T00:15:23.594Z,3.41
2018-03-29T00:16:23.488Z,3.37
2018-03-29T00:17:23.384Z,3.47
2018-03-29T00:18:23.269Z,3.41
2018-03-29T00:19:23.166Z,3.31
2018-03-29T00:20:23.071Z,3.37
2018-03-29T00:21:22.960Z,3.32
2018-03-29T00:22:22.856Z,3.32
2018-03-29T00:23:22.739Z,3.37
2018-03-29T00:24:22.634Z,3.42
2018-03-29T00:25:22.585Z,3.36
2018-03-29T00:26:22.429Z,3.37
2018-03-29T00:27:22.325Z,3.32
2018-03-29T00:28:22.216Z,3.41
2018-03-29T00:29:22.108Z,3.34
2018-03-29T00:30:22.003Z,3.34
2018-03-29T00:31:21.901Z,3.44
2018-03-29T00:32:21.797Z,3.44
2018-03-29T00:33:21.697Z,3.42
2018-03-29T00:34:21.577Z,3.37
2018-03-29T00:35:21.475Z,3.37
2018-03-29T00:36:21.371Z,3.37
2018-03-29T00:37:21.267Z,3.36
2018-03-29T00:38:21.155Z,3.42
2018-03-29T00:39:21.050Z,3.34
2018-03-29T00:40:20.946Z,3.42
2018-03-29T00:41:20.842Z,3.48
2018-03-29T00:42:20.778Z,3.40
2018-03-29T00:43:20.636Z,3.45
2018-03-29T00:44:20.520Z,3.45
2018-03-29T00:45:20.415Z,3.50
2018-03-29T00:46:20.312Z,3.47
2018-03-29T00:47:20.211Z,3.44
2018-03-29T00:48:20.094Z,3.48
2018-03-29T00:49:19.990Z,3.45
2018-03-29T00:50:19.888Z,3.47
2018-03-29T00:51:19.785Z,3.42
2018-03-29T00:52:19.670Z,3.37
2018-03-29T00:53:19.565Z,3.50
2018-03-29T00:54:19.461Z,3.48
2018-03-29T00:55:19.358Z,3.48
2018-03-29T00:56:19.255Z,3.53
2018-03-29T00:57:19.152Z,3.41
2018-03-29T00:58:19.036Z,3.40
2018-03-29T00:59:18.933Z,3.40
2018-03-29T01:00:18.830Z,3.53
2018-03-29T01:01:18.727Z,3.37
2018-03-29T01:02:18.926Z,3.59
2018-03-29T01:03:18.506Z,3.45
2018-03-29T01:04:18.403Z,3.55
2018-03-29T01:05:18.299Z,3.53
2018-03-29T01:06:18.196Z,3.58
2018-03-29T01:07:18.093Z,3.51
2018-03-29T01:08:17.978Z,3.53
2018-03-29T01:09:17.876Z,3.51
2018-03-29T01:10:17.772Z,3.56
2018-03-29T01:11:17.669Z,3.62
2018-03-29T01:12:17.569Z,3.62
2018-03-29T01:13:17.449Z,3.60
2018-03-29T01:14:17.345Z,3.63
2018-03-29T01:15:17.242Z,3.59
2018-03-29T01:16:17.139Z,3.65
2018-03-29T01:17:17.038Z,3.70
2018-03-29T01:18:16.920Z,3.65
2018-03-29T01:19:16.817Z,3.69
2018-03-29T01:20:16.713Z,3.66
2018-03-29T01:21:16.610Z,3.69
2018-03-29T01:22:16.507Z,3.68
2018-03-29T01:23:16.393Z,3.62
2018-03-29T01:24:16.287Z,3.69
2018-03-29T01:25:16.184Z,3.65
2018-03-29T01:26:16.081Z,3.65
2018-03-29T01:27:15.977Z,3.65
2018-03-29T01:28:15.863Z,3.73
2018-03-29T01:29:15.759Z,3.78
2018-03-29T01:30:15.656Z,3.69
2018-03-29T01:31:15.552Z,3.74
2018-03-29T01:32:15.437Z,3.76
2018-03-29T01:33:15.332Z,3.78
2018-03-29T01:34:15.228Z,3.76
2018-03-29T01:35:15.128Z,3.83
2018-03-29T01:36:15.022Z,3.78
2018-03-29T01:37:14.919Z,3.80
2018-03-29T01:38:14.807Z,3.70
2018-03-29T01:39:14.700Z,3.74
2018-03-29T01:40:14.597Z,3.68
2018-03-29T01:41:14.493Z,3.80
2018-03-29T01:42:14.390Z,3.78
2018-03-29T01:43:14.274Z,3.77
2018-03-29T01:44:14.172Z,3.73
2018-03-29T01:45:14.067Z,3.87
2018-03-29T01:46:13.964Z,3.80
2018-03-29T01:47:13.862Z,3.78
2018-03-29T01:48:13.749Z,3.76
2018-03-29T01:49:13.643Z,3.80
2018-03-29T01:50:13.539Z,3.80
2018-03-29T01:51:13.435Z,3.88
2018-03-29T01:52:13.332Z,3.81
2018-03-29T01:53:13.220Z,3.77
2018-03-29T01:54:13.125Z,3.83
2018-03-29T01:55:13.009Z,3.81
2018-03-29T01:56:12.911Z,3.83
2018-03-29T01:57:12.809Z,3.86
2018-03-29T01:58:12.699Z,3.80
2018-03-29T01:59:12.583Z,3.78
2018-03-29T02:00:12.481Z,3.92
2018-03-29T02:01:12.377Z,3.86
2018-03-29T02:02:12.274Z,3.92
2018-03-29T02:03:12.171Z,3.80
2018-03-29T02:04:12.058Z,3.94
2018-03-29T02:05:11.956Z,3.87
2018-03-29T02:06:11.851Z,3.84
2018-03-29T02:07:11.994Z,3.88
2018-03-29T02:08:11.644Z,3.87
2018-03-29T02:09:11.538Z,3.78
2018-03-29T02:10:11.423Z,3.81
2018-03-29T02:11:11.319Z,3.94
2018-03-29T02:12:11.215Z,3.94
2018-03-29T02:13:11.118Z,3.96
2018-03-29T02:14:11.009Z,3.94
2018-03-29T02:15:10.906Z,4.02
2018-03-29T02:16:10.790Z,3.91
2018-03-29T02:17:10.686Z,4.02
2018-03-29T02:18:10.583Z,4.01
2018-03-29T02:19:10.492Z,3.99
2018-03-29T02:20:10.376Z,3.94
2018-03-29T02:21:10.273Z,3.94
2018-03-29T02:22:10.169Z,3.96
2018-03-29T02:23:10.055Z,4.06
2018-03-29T02:24:09.958Z,4.02
2018-03-29T02:25:09.848Z,4.06
2018-03-29T02:26:09.745Z,3.99
2018-03-29T02:27:09.644Z,4.10
2018-03-29T02:28:09.538Z,4.10
2018-03-29T02:29:09.442Z,4.14
2018-03-29T02:30:09.331Z,4.08
2018-03-29T02:31:09.224Z,4.13
2018-03-29T02:32:09.112Z,4.13
2018-03-29T02:33:09.009Z,4.10
2018-03-29T02:34:08.904Z,4.10
2018-03-29T02:35:08.803Z,4.14
2018-03-29T02:36:08.703Z,4.12
2018-03-29T02:37:08.845Z,4.22
2018-03-29T02:38:08.506Z,4.16
2018-03-29T02:39:08.378Z,4.16
2018-03-29T02:40:08.273Z,4.30
2018-03-29T02:41:08.170Z,4.32
2018-03-29T02:42:08.067Z,4.24
2018-03-29T02:43:07.965Z,4.34
2018-03-29T02:44:07.860Z,4.35
2018-03-29T02:45:07.757Z,4.40
2018-03-29T02:46:07.654Z,4.41
2018-03-29T02:47:07.840Z,4.49
2018-03-29T02:48:07.435Z,4.55
2018-03-29T02:49:07.330Z,4.53
2018-03-29T02:50:07.228Z,4.53
2018-03-29T02:51:07.124Z,4.49
2018-03-29T02:52:07.020Z,4.49
2018-03-29T02:53:06.916Z,4.50
2018-03-29T02:54:06.814Z,4.53
2018-03-29T02:55:06.716Z,4.42
2018-03-29T02:56:06.607Z,4.52
2018-03-29T02:57:06.516Z,4.49
2018-03-29T02:58:06.411Z,4.49
2018-03-29T02:59:06.285Z,4.53
2018-03-29T03:00:06.183Z,4.62
2018-03-29T03:01:06.081Z,4.58
2018-03-29T03:02:05.976Z,4.63
2018-03-29T03:03:05.873Z,4.70
2018-03-29T03:04:05.770Z,4.63
2018-03-29T03:05:05.669Z,4.63
2018-03-29T03:06:05.563Z,4.63
2018-03-29T03:07:05.460Z,4.71
2018-03-29T03:08:05.344Z,4.78
2018-03-29T03:09:05.239Z,4.75
2018-03-29T03:10:05.135Z,4.73
2018-03-29T03:11:05.033Z,4.86
2018-03-29T03:12:04.930Z,4.70
2018-03-29T03:13:04.825Z,4.80
2018-03-29T03:14:04.722Z,4.90
2018-03-29T03:15:04.618Z,5.00
2018-03-29T03:16:04.515Z,4.92
2018-03-29T03:17:04.415Z,5.04
2018-03-29T03:18:04.309Z,4.96
2018-03-29T03:19:04.205Z,4.99
2018-03-29T03:20:04.092Z,4.99
2018-03-29T03:21:03.987Z,5.04
2018-03-29T03:22:03.883Z,4.96
2018-03-29T03:23:03.784Z,5.08
2018-03-29T03:24:03.677Z,5.04
2018-03-29T03:25:03.574Z,5.14
2018-03-29T03:26:03.470Z,5.17
2018-03-29T03:27:03.368Z,5.18
2018-03-29T03:28:03.263Z,5.21
2018-03-29T03:29:03.162Z,5.25
2018-03-29T03:30:03.063Z,5.32
2018-03-29T03:31:02.947Z,5.32
2018-03-29T03:32:02.837Z,5.41
2018-03-29T03:33:02.734Z,5.47
2018-03-29T03:34:02.630Z,5.43
2018-03-29T03:35:02.536Z,5.39
2018-03-29T03:36:02.424Z,5.48
2018-03-29T03:37:02.366Z,5.44
2018-03-29T03:38:02.218Z,5.51
2018-03-29T03:39:02.117Z,5.50
2018-03-29T03:40:02.010Z,5.56
2018-03-29T03:41:01.910Z,5.51
2018-03-29T03:42:01.810Z,5.50
2018-03-29T03:43:01.728Z,5.53
2018-03-29T03:44:01.597Z,5.50
2018-03-29T03:45:01.494Z,5.48
2018-03-29T03:46:01.385Z,5.53
2018-03-29T03:47:01.277Z,5.51
2018-03-29T03:48:01.173Z,5.54
2018-03-29T03:49:01.069Z,5.47
2018-03-29T03:50:00.970Z,5.51
2018-03-29T03:51:00.862Z,5.51
2018-03-29T03:52:00.760Z,5.46
2018-03-29T03:53:00.656Z,5.48
2018-03-29T03:54:00.552Z,5.53
2018-03-29T03:55:00.449Z,5.43
2018-03-29T03:56:00.348Z,5.50
2018-03-29T03:57:00.243Z,5.38
2018-03-29T03:58:00.139Z,5.50
2018-03-29T03:59:00.036Z,5.41
2018-03-29T03:59:59.934Z,5.47
2018-03-29T04:00:59.830Z,5.46
2018-03-29T04:01:59.714Z,5.43
2018-03-29T04:02:59.610Z,5.35
2018-03-29T04:03:59.507Z,5.41
2018-03-29T04:04:59.402Z,5.43
2018-03-29T04:05:59.299Z,5.29
2018-03-29T04:06:59.196Z,5.39
2018-03-29T04:07:59.106Z,5.33
2018-03-29T04:08:58.989Z,5.30
2018-03-29T04:09:58.886Z,5.35
2018-03-29T04:10:58.783Z,5.32
2018-03-29T04:11:58.680Z,5.26
2018-03-29T04:12:58.576Z,5.29
2018-03-29T04:13:58.472Z,5.25
2018-03-29T04:14:58.369Z,5.26
2018-03-29T04:15:58.266Z,5.15
2018-03-29T04:16:58.166Z,5.17
2018-03-29T04:17:58.059Z,5.15
2018-03-29T04:18:57.944Z,5.14
2018-03-29T04:19:57.900Z,5.17
2018-03-29T04:20:57.738Z,5.17
2018-03-29T04:21:57.635Z,5.08
2018-03-29T04:22:57.532Z,5.00
2018-03-29T04:23:57.432Z,5.04
2018-03-29T04:24:57.326Z,5.10
2018-03-29T04:25:57.221Z,5.07
2018-03-29T04:26:57.117Z,4.96
2018-03-29T04:27:57.015Z,5.04
2018-03-29T04:28:56.910Z,5.00
2018-03-29T04:29:56.808Z,5.02
2018-03-29T04:30:56.700Z,4.96
2018-03-29T04:31:56.589Z,4.94
2018-03-29T04:32:56.486Z,4.97
2018-03-29T04:33:56.381Z,4.97
2018-03-29T04:34:56.278Z,5.02
2018-03-29T04:35:56.174Z,5.08
2018-03-29T04:36:56.072Z,4.99
2018-03-29T04:37:55.969Z,5.00
2018-03-29T04:38:55.865Z,5.05
2018-03-29T04:39:55.765Z,5.04
2018-03-29T04:40:55.658Z,4.94
2018-03-29T04:41:55.805Z,4.89
2018-03-29T04:42:55.452Z,4.90
2018-03-29T04:43:55.337Z,4.90
2018-03-29T04:44:55.234Z,4.89
2018-03-29T04:45:55.130Z,4.89
2018-03-29T04:46:55.027Z,4.99
2018-03-29T04:47:54.924Z,4.96
2018-03-29T04:48:54.820Z,4.89
2018-03-29T04:49:54.717Z,4.90
2018-03-29T04:50:54.617Z,4.86
2018-03-29T04:51:54.510Z,4.97
2018-03-29T04:52:54.407Z,4.92
2018-03-29T04:53:54.304Z,5.04
2018-03-29T04:54:54.189Z,5.04
2018-03-29T04:55:54.084Z,5.02
2018-03-29T04:56:53.980Z,4.96
2018-03-29T04:57:53.878Z,4.87
2018-03-29T04:58:53.776Z,4.96
2018-03-29T04:59:53.670Z,4.93
2018-03-29T05:00:53.567Z,4.93
2018-03-29T05:01:53.464Z,4.90
2018-03-29T05:02:53.360Z,4.93
2018-03-29T05:03:53.257Z,4.87
2018-03-29T05:04:53.154Z,4.93
2018-03-29T05:05:53.050Z,4.94
2018-03-29T05:06:52.942Z,4.87
2018-03-29T05:07:52.833Z,5.00
2018-03-29T05:08:52.728Z,4.86
2018-03-29T05:09:52.629Z,4.87
2018-03-29T05:10:52.521Z,4.94
2018-03-29T05:11:52.419Z,4.94
2018-03-29T05:12:52.315Z,4.94
2018-03-29T05:13:52.212Z,4.92
2018-03-29T05:14:52.112Z,4.93
2018-03-29T05:15:52.008Z,4.94
2018-03-29T05:16:51.902Z,4.93
2018-03-29T05:17:51.787Z,4.94
2018-03-29T05:18:51.682Z,4.87
2018-03-29T05:19:51.582Z,4.94
2018-03-29T05:20:51.477Z,4.84
2018-03-29T05:21:51.372Z,4.86
2018-03-29T05:22:51.269Z,4.82
2018-03-29T05:23:51.180Z,4.82
2018-03-29T05:24:51.062Z,4.80
2018-03-29T05:25:50.958Z,4.78
2018-03-29T05:26:50.856Z,4.86
2018-03-29T05:27:50.741Z,4.93
2018-03-29T05:28:50.637Z,4.87
2018-03-29T05:29:50.534Z,4.86
2018-03-29T05:30:50.431Z,4.82
2018-03-29T05:31:50.327Z,4.89
2018-03-29T05:32:50.224Z,4.80
2018-03-29T05:33:50.120Z,4.68
2018-03-29T05:34:50.017Z,4.82
2018-03-29T05:35:49.914Z,4.78
2018-03-29T05:36:50.061Z,4.80
2018-03-29T05:37:49.709Z,4.78
2018-03-29T05:38:49.592Z,4.80
2018-03-29T05:39:49.487Z,4.86
2018-03-29T05:40:49.443Z,4.84
2018-03-29T05:41:49.281Z,4.90
2018-03-29T05:42:49.178Z,4.78
2018-03-29T05:43:49.077Z,4.78
2018-03-29T05:44:48.971Z,4.86
2018-03-29T05:45:48.868Z,4.84
2018-03-29T05:46:48.764Z,4.80
2018-03-29T05:47:48.660Z,4.70
2018-03-29T05:48:48.556Z,4.86
2018-03-29T05:49:48.442Z,4.84
2018-03-29T05:50:48.339Z,4.68
2018-03-29T05:51:48.236Z,4.70
2018-03-29T05:52:48.133Z,4.71
2018-03-29T05:53:48.030Z,4.78
2018-03-29T05:54:47.925Z,4.86
2018-03-29T05:55:47.824Z,4.84
2018-03-29T05:56:47.719Z,4.73
2018-03-29T05:57:47.615Z,4.73
2018-03-29T05:58:47.513Z,4.84
2018-03-29T05:59:47.396Z,4.70
2018-03-29T06:00:47.294Z,4.84
2018-03-29T06:01:47.190Z,4.87
2018-03-29T06:02:47.087Z,4.80
2018-03-29T06:03:46.984Z,4.87
2018-03-29T06:04:46.880Z,4.84
2018-03-29T06:05:46.777Z,4.84
2018-03-29T06:06:46.673Z,4.84
2018-03-29T06:07:46.571Z,4.80
2018-03-29T06:08:46.466Z,4.90
2018-03-29T06:09:46.363Z,4.87
2018-03-29T06:10:46.251Z,4.90
2018-03-29T06:11:46.145Z,4.90
2018-03-29T06:12:46.048Z,4.87
2018-03-29T06:13:45.938Z,4.93
2018-03-29T06:14:45.835Z,4.90
2018-03-29T06:15:45.732Z,4.93
2018-03-29T06:16:45.928Z,4.90
2018-03-29T06:17:45.582Z,5.04
2018-03-29T06:18:45.422Z,5.04
2018-03-29T06:19:45.319Z,5.02
2018-03-29T06:20:45.215Z,4.94
2018-03-29T06:21:45.100Z,4.96
2018-03-29T06:22:44.995Z,5.04
2018-03-29T06:23:44.891Z,5.02
2018-03-29T06:24:44.788Z,4.90
2018-03-29T06:25:44.687Z,5.04
2018-03-29T06:26:44.581Z,5.05
2018-03-29T06:27:44.516Z,5.07
2018-03-29T06:28:44.375Z,4.99
2018-03-29T06:29:44.271Z,5.04
2018-03-29T06:30:44.171Z,4.97
2018-03-29T06:31:44.066Z,5.02
2018-03-29T06:32:43.962Z,5.00
2018-03-29T06:33:43.858Z,5.07
2018-03-29T06:34:43.744Z,5.02
2018-03-29T06:35:43.640Z,4.94
2018-03-29T06:36:43.537Z,5.04
2018-03-29T06:37:43.434Z,5.05
2018-03-29T06:38:43.332Z,5.05
2018-03-29T06:39:43.227Z,5.00
2018-03-29T06:40:43.128Z,4.97
2018-03-29T06:41:43.020Z,5.00
2018-03-29T06:42:42.917Z,4.96
2018-03-29T06:43:42.814Z,4.99
2018-03-29T06:44:42.711Z,4.97
2018-03-29T06:45:42.607Z,5.00
2018-03-29T06:46:42.504Z,5.05
2018-03-29T06:47:42.400Z,5.08
2018-03-29T06:48:42.301Z,5.11
2018-03-29T06:49:42.194Z,5.02
2018-03-29T06:50:42.077Z,5.12
2018-03-29T06:51:41.975Z,5.12
2018-03-29T06:52:41.872Z,5.17
2018-03-29T06:53:41.771Z,5.15
2018-03-29T06:54:41.667Z,5.17
2018-03-29T06:55:41.562Z,5.21
2018-03-29T06:56:41.459Z,5.25
2018-03-29T06:57:41.354Z,5.28
2018-03-29T06:58:41.254Z,5.23
2018-03-29T06:59:41.147Z,5.30
2018-03-29T07:00:41.044Z,5.28
2018-03-29T07:01:40.942Z,5.21
2018-03-29T07:02:40.837Z,5.38
2018-03-29T07:03:40.735Z,5.25
2018-03-29T07:04:40.631Z,5.29
2018-03-29T07:05:40.529Z,5.46
2018-03-29T07:06:40.427Z,5.44
2018-03-29T07:07:40.320Z,5.46
2018-03-29T07:08:40.208Z,5.41
2018-03-29T07:09:40.103Z,5.39
2018-03-29T07:10:39.999Z,5.41
2018-03-29T07:11:39.896Z,5.38
2018-03-29T07:12:39.794Z,5.36
2018-03-29T07:13:39.689Z,5.36
2018-03-29T07:14:39.586Z,5.44
2018-03-29T07:15:39.482Z,5.53
2018-03-29T07:16:39.380Z,5.51
2018-03-29T07:17:39.276Z,5.62
2018-03-29T07:18:39.173Z,5.62
2018-03-29T07:19:39.070Z,5.62
2018-03-29T07:20:38.967Z,5.68
2018-03-29T07:21:38.865Z,5.68
2018-03-29T07:22:38.760Z,5.68
2018-03-29T07:23:38.656Z,5.72
2018-03-29T07:24:38.553Z,5.72
2018-03-29T07:25:38.450Z,5.86
2018-03-29T07:26:38.347Z,5.86
2018-03-29T07:27:38.243Z,5.86
2018-03-29T07:28:38.140Z,5.87
2018-03-29T07:29:38.044Z,5.90
2018-03-29T07:30:37.957Z,5.89
2018-03-29T07:31:37.830Z,5.89
2018-03-29T07:32:37.728Z,5.93
2018-03-29T07:33:37.622Z,5.91
2018-03-29T07:34:37.525Z,6.01
2018-03-29T07:35:37.420Z,6.07
2018-03-29T07:36:37.352Z,6.01
2018-03-29T07:37:37.209Z,6.07
2018-03-29T07:38:37.107Z,6.05
2018-03-29T07:39:37.003Z,6.19
2018-03-29T07:40:36.902Z,6.19
2018-03-29T07:41:36.796Z,6.12
2018-03-29T07:42:36.693Z,6.16
2018-03-29T07:43:36.590Z,6.16
2018-03-29T07:44:36.486Z,6.14
2018-03-29T07:45:36.394Z,6.24
2018-03-29T07:46:36.291Z,6.35
2018-03-29T07:47:36.191Z,6.30
2018-03-29T07:48:36.085Z,6.26
2018-03-29T07:49:35.981Z,6.31
2018-03-29T07:50:35.878Z,6.24
2018-03-29T07:51:35.776Z,6.30
2018-03-29T07:52:35.672Z,6.30
2018-03-29T07:53:35.572Z,6.28
2018-03-29T07:54:35.465Z,6.35
2018-03-29T07:55:35.363Z,6.28
2018-03-29T07:56:35.258Z,6.24
2018-03-29T07:57:35.167Z,6.28
2018-03-29T07:58:35.052Z,6.27
2018-03-29T07:59:34.951Z,6.26
2018-03-29T08:00:34.845Z,6.30
2018-03-29T08:01:34.742Z,6.31
2018-03-29T08:02:34.638Z,6.26
2018-03-29T08:03:34.537Z,6.26
2018-03-29T08:04:34.444Z,6.28
2018-03-29T08:05:34.342Z,6.33
2018-03-29T08:06:34.239Z,6.28
2018-03-29T08:07:34.135Z,6.36
2018-03-29T08:08:34.031Z,6.20
2018-03-29T08:09:33.928Z,6.30
2018-03-29T08:10:33.825Z,6.26
2018-03-29T08:11:33.722Z,6.27
2018-03-29T08:12:33.619Z,6.36
2018-03-29T08:13:33.515Z,6.31
2018-03-29T08:14:33.413Z,6.30
2018-03-29T08:15:33.311Z,6.28
2018-03-29T08:16:33.205Z,6.45
2018-03-29T08:17:33.121Z,6.38
2018-03-29T08:18:32.998Z,6.39
2018-03-29T08:19:32.908Z,6.39
2018-03-29T08:20:32.803Z,6.46
2018-03-29T08:21:32.701Z,6.39
2018-03-29T08:22:32.598Z,6.45
2018-03-29T08:23:32.494Z,6.38
2018-03-29T08:24:32.391Z,6.28
2018-03-29T08:25:32.288Z,6.39
2018-03-29T08:26:32.197Z,6.39
2018-03-29T08:27:32.080Z,6.39
2018-03-29T08:28:31.977Z,6.42
2018-03-29T08:29:31.878Z,6.30
2018-03-29T08:30:31.770Z,6.30
2018-03-29T08:31:31.668Z,6.41
2018-03-29T08:32:31.570Z,6.41
2018-03-29T08:33:31.474Z,6.57
2018-03-29T08:34:31.371Z,6.66
2018-03-29T08:35:31.268Z,6.49
2018-03-29T08:36:31.167Z,6.54
2018-03-29T08:37:31.061Z,6.51
2018-03-29T08:38:30.959Z,6.52
2018-03-29T08:39:30.854Z,6.56
2018-03-29T08:40:30.752Z,6.56
2018-03-29T08:41:30.648Z,6.57
2018-03-29T08:42:30.544Z,6.60
2018-03-29T08:43:30.441Z,6.64
2018-03-29T08:44:30.339Z,6.69
2018-03-29T08:45:30.246Z,6.66
2018-03-29T08:46:30.143Z,6.60
2018-03-29T08:47:30.039Z,6.63
2018-03-29T08:48:29.940Z,6.67
2018-03-29T08:49:29.833Z,6.66
2018-03-29T08:50:29.730Z,6.59
2018-03-29T08:51:29.627Z,6.67
2018-03-29T08:52:29.523Z,6.63
2018-03-29T08:53:29.422Z,6.64
2018-03-29T08:54:29.317Z,6.51
2018-03-29T08:55:29.214Z,6.52
2018-03-29T08:56:29.123Z,6.51
2018-03-29T08:57:29.019Z,6.45
2018-03-29T08:58:28.915Z,6.39
2018-03-29T08:59:28.813Z,6.42
2018-03-29T09:00:28.712Z,6.45
2018-03-29T09:01:28.856Z,6.66
2018-03-29T09:02:28.503Z,6.57
2018-03-29T09:03:28.400Z,6.70
2018-03-29T09:04:28.296Z,6.84
2018-03-29T09:05:28.193Z,7.02
2018-03-29T09:06:28.090Z,7.03
2018-03-29T09:07:27.999Z,7.31
2018-03-29T09:08:27.895Z,7.36
2018-03-29T09:09:27.793Z,7.43
2018-03-29T09:10:27.740Z,7.33
2018-03-29T09:11:27.584Z,7.48
2018-03-29T09:12:27.483Z,7.53
2018-03-29T09:13:27.378Z,7.58
2018-03-29T09:14:27.276Z,7.76
2018-03-29T09:15:27.204Z,8.00
2018-03-29T09:16:27.081Z,7.88
2018-03-29T09:17:26.978Z,7.67
2018-03-29T09:18:26.874Z,7.51
2018-03-29T09:19:26.775Z,7.45
2018-03-29T09:20:26.669Z,7.31
2018-03-29T09:21:26.595Z,7.06
2018-03-29T09:22:26.473Z,7.21
2018-03-29T09:23:26.372Z,7.20
2018-03-29T09:24:26.269Z,6.96
2018-03-29T09:25:26.164Z,6.81
2018-03-29T09:26:26.062Z,6.69
2018-03-29T09:27:25.970Z,6.74
2018-03-29T09:28:25.866Z,6.74
2018-03-29T09:29:25.763Z,6.81
2018-03-29T09:30:25.660Z,6.81
2018-03-29T09:31:25.557Z,6.85
2018-03-29T09:32:25.466Z,6.77
2018-03-29T09:33:25.361Z,6.57
2018-03-29T09:34:25.260Z,6.57
2018-03-29T09:35:25.155Z,6.64
2018-03-29T09:36:25.052Z,6.57
2018-03-29T09:37:24.948Z,6.41
2018-03-29T09:38:24.846Z,6.27
2018-03-29T09:39:24.755Z,6.31
2018-03-29T09:40:24.655Z,6.44
2018-03-29T09:41:24.548Z,6.38
2018-03-29T09:42:24.446Z,6.69
2018-03-29T09:43:24.342Z,6.75
2018-03-29T09:44:24.242Z,6.95
2018-03-29T09:45:24.140Z,7.11
2018-03-29T09:46:24.032Z,7.29
2018-03-29T09:47:23.941Z,7.56
2018-03-29T09:48:23.838Z,7.50
2018-03-29T09:49:23.735Z,7.63
2018-03-29T09:50:23.643Z,7.47
2018-03-29T09:51:23.527Z,7.40
2018-03-29T09:52:23.423Z,7.38
2018-03-29T09:53:23.321Z,7.58
2018-03-29T09:54:23.232Z,7.56
2018-03-29T09:55:23.171Z,7.58
2018-03-29T09:56:23.024Z,7.50
2018-03-29T09:57:22.921Z,7.47
2018-03-29T09:58:22.820Z,7.35
2018-03-29T09:59:22.715Z,7.40
2018-03-29T10:00:22.622Z,7.38
2018-03-29T10:01:22.520Z,7.42
2018-03-29T10:02:22.415Z,7.36
2018-03-29T10:03:22.313Z,7.32
2018-03-29T10:04:22.208Z,7.39
2018-03-29T10:05:22.107Z,7.29
2018-03-29T10:06:22.015Z,7.39
2018-03-29T10:07:21.912Z,7.54
2018-03-29T10:08:21.809Z,7.58
2018-03-29T10:09:21.706Z,7.93
2018-03-29T10:10:21.603Z,7.97
2018-03-29T10:11:21.505Z,7.91
2018-03-29T10:12:21.407Z,7.87
2018-03-29T10:13:21.303Z,7.66
2018-03-29T10:14:21.200Z,7.54
2018-03-29T10:15:21.097Z,7.43
2018-03-29T10:16:20.995Z,7.35
2018-03-29T10:17:20.912Z,7.33
2018-03-29T10:18:20.800Z,7.18
2018-03-29T10:19:20.698Z,7.17
2018-03-29T10:20:20.594Z,7.13
2018-03-29T10:21:20.495Z,7.15
2018-03-29T10:22:20.388Z,7.31
2018-03-29T10:23:20.295Z,7.48
2018-03-29T10:24:20.192Z,7.63
2018-03-29T10:25:20.090Z,7.63
2018-03-29T10:26:19.985Z,7.73
2018-03-29T10:27:19.882Z,7.80
2018-03-29T10:28:19.779Z,7.85
2018-03-29T10:29:19.690Z,7.82
2018-03-29T10:30:19.586Z,7.98
2018-03-29T10:31:19.484Z,8.08
2018-03-29T10:32:19.379Z,7.97
2018-03-29T10:33:19.276Z,7.93
2018-03-29T10:34:19.177Z,7.93
2018-03-29T10:35:19.081Z,7.82
2018-03-29T10:36:18.977Z,7.80
2018-03-29T10:37:18.880Z,7.73
2018-03-29T10:38:18.771Z,7.60
2018-03-29T10:39:18.722Z,7.63
2018-03-29T10:40:18.578Z,7.54
2018-03-29T10:41:18.474Z,7.56
2018-03-29T10:42:18.372Z,7.63
2018-03-29T10:43:18.267Z,7.80
2018-03-29T10:44:18.165Z,7.91
2018-03-29T10:45:18.073Z,8.24
2018-03-29T10:46:17.975Z,8.49
2018-03-29T10:47:17.875Z,8.88
2018-03-29T10:48:17.763Z,8.88
2018-03-29T10:49:17.660Z,8.99
2018-03-29T10:50:17.567Z,9.06
2018-03-29T10:51:17.466Z,9.23
2018-03-29T10:52:17.363Z,9.19
2018-03-29T10:53:17.260Z,9.28
2018-03-29T10:54:17.156Z,9.41
2018-03-29T10:55:17.068Z,9.51
2018-03-29T10:56:16.961Z,9.23
2018-03-29T10:57:16.858Z,9.11
2018-03-29T10:58:16.757Z,9.10
2018-03-29T10:59:16.664Z,8.88
2018-03-29T11:00:16.561Z,8.94
2018-03-29T11:01:16.458Z,8.94
2018-03-29T11:02:16.366Z,8.92
2018-03-29T11:03:16.275Z,8.82
2018-03-29T11:04:16.159Z,8.67
2018-03-29T11:05:16.070Z,8.56
2018-03-29T11:06:15.967Z,8.34
2018-03-29T11:07:15.863Z,8.23
2018-03-29T11:08:15.760Z,8.12
2018-03-29T11:09:15.668Z,8.24
2018-03-29T11:10:15.571Z,8.18
2018-03-29T11:11:15.461Z,8.31
2018-03-29T11:12:15.372Z,8.10
2018-03-29T11:13:15.269Z,8.09
2018-03-29T11:14:15.164Z,8.08
2018-03-29T11:15:15.062Z,8.13
2018-03-29T11:16:14.969Z,8.19
2018-03-29T11:17:14.867Z,8.16
2018-03-29T11:18:14.763Z,8.10
2018-03-29T11:19:14.661Z,8.05
2018-03-29T11:20:14.569Z,8.01
2018-03-29T11:21:14.473Z,7.95
2018-03-29T11:22:14.364Z,8.03
2018-03-29T11:23:14.261Z,7.91
2018-03-29T11:24:14.171Z,8.08
2018-03-29T11:25:14.065Z,8.03
2018-03-29T11:26:13.961Z,8.05
2018-03-29T11:27:13.859Z,7.91
2018-03-29T11:28:13.762Z,8.05
2018-03-29T11:29:13.665Z,8.01
2018-03-29T11:30:13.562Z,8.15
2018-03-29T11:31:13.459Z,8.33
2018-03-29T11:32:13.354Z,8.34
2018-03-29T11:33:13.263Z,8.46
2018-03-29T11:34:13.160Z,8.67
2018-03-29T11:35:13.057Z,8.84
2018-03-29T11:36:12.953Z,8.91
2018-03-29T11:37:12.852Z,8.99
2018-03-29T11:38:12.761Z,8.88
2018-03-29T11:39:12.658Z,8.87
2018-03-29T11:40:12.554Z,8.81
2018-03-29T11:41:12.451Z,8.81
2018-03-29T11:42:12.358Z,8.67
2018-03-29T11:43:12.255Z,8.67
2018-03-29T11:44:12.152Z,8.61
2018-03-29T11:45:12.048Z,8.73
2018-03-29T11:46:11.948Z,8.82
2018-03-29T11:47:11.854Z,8.87
2018-03-29T11:48:11.752Z,9.06
2018-03-29T11:49:11.649Z,8.89
2018-03-29T11:50:11.556Z,8.94
2018-03-29T11:51:11.454Z,8.99
2018-03-29T11:52:11.350Z,8.79
2018-03-29T11:53:11.247Z,8.79
2018-03-29T11:54:11.157Z,8.87
2018-03-29T11:55:11.054Z,8.87
2018-03-29T11:56:10.951Z,8.87
2018-03-29T11:57:10.847Z,8.85
2018-03-29T11:58:10.755Z,8.84
2018-03-29T11:59:10.653Z,8.73
2018-03-29T12:00:10.549Z,8.91
2018-03-29T12:01:10.447Z,8.73
2018-03-29T12:02:10.356Z,8.53
2018-03-29T12:03:10.253Z,8.31
2018-03-29T12:04:10.148Z,8.33
2018-03-29T12:05:10.111Z,8.26
2018-03-29T12:06:09.954Z,8.18
2018-03-29T12:07:09.850Z,8.20
2018-03-29T12:08:09.748Z,8.19
2018-03-29T12:09:09.658Z,8.15
2018-03-29T12:10:09.554Z,8.23
2018-03-29T12:11:09.452Z,8.27
2018-03-29T12:12:09.348Z,8.46
2018-03-29T12:13:09.255Z,8.37
2018-03-29T12:14:09.152Z,8.44
2018-03-29T12:15:09.053Z,8.51
2018-03-29T12:16:08.946Z,8.61
2018-03-29T12:17:08.845Z,8.64
2018-03-29T12:18:08.753Z,8.66
2018-03-29T12:19:08.649Z,8.70
2018-03-29T12:20:08.546Z,8.70
2018-03-29T12:21:08.442Z,8.56
2018-03-29T12:22:08.351Z,8.55
2018-03-29T12:23:08.247Z,8.53
2018-03-29T12:24:08.144Z,8.49
2018-03-29T12:25:08.043Z,8.51
2018-03-29T12:26:07.939Z,8.67
2018-03-29T12:27:07.847Z,8.53
2018-03-29T12:28:07.746Z,8.52
2018-03-29T12:29:07.641Z,8.58
2018-03-29T12:30:07.538Z,8.34
2018-03-29T12:31:07.447Z,8.33
2018-03-29T12:32:07.342Z,8.33
2018-03-29T12:33:07.240Z,8.34
2018-03-29T12:34:07.142Z,8.30
2018-03-29T12:35:07.046Z,8.30
2018-03-29T12:36:06.942Z,8.31
2018-03-29T12:37:06.839Z,8.27
2018-03-29T12:38:06.737Z,8.24
2018-03-29T12:39:06.633Z,8.24
2018-03-29T12:40:06.541Z,8.30
2018-03-29T12:41:06.433Z,8.36
2018-03-29T12:42:06.334Z,8.37
2018-03-29T12:43:06.234Z,8.33
2018-03-29T12:44:06.145Z,8.48
2018-03-29T12:45:06.056Z,8.70
2018-03-29T12:46:05.935Z,8.71
2018-03-29T12:47:05.832Z,8.87
2018-03-29T12:48:05.730Z,9.10
2018-03-29T12:49:05.628Z,9.11
2018-03-29T12:50:05.534Z,9.19
2018-03-29T12:51:05.457Z,9.29
2018-03-29T12:52:05.326Z,9.36
2018-03-29T12:53:05.236Z,9.46
2018-03-29T12:54:05.134Z,9.46
2018-03-29T12:55:05.030Z,9.39
2018-03-29T12:56:04.927Z,9.51
2018-03-29T12:57:04.834Z,9.32
2018-03-29T12:58:04.732Z,9.13
2018-03-29T12:59:04.632Z,9.06
2018-03-29T13:00:04.525Z,9.04
2018-03-29T13:01:04.435Z,9.25
2018-03-29T13:02:04.332Z,9.28
2018-03-29T13:03:04.228Z,9.29
2018-03-29T13:04:04.136Z,9.31
2018-03-29T13:05:04.033Z,9.36
2018-03-29T13:06:03.930Z,9.44
2018-03-29T13:07:03.827Z,9.62
2018-03-29T13:08:03.737Z,9.65
2018-03-29T13:09:03.633Z,9.62
2018-03-29T13:10:03.530Z,9.62
2018-03-29T13:11:03.443Z,9.31
2018-03-29T13:12:03.335Z,9.29
2018-03-29T13:13:03.231Z,9.22
2018-03-29T13:14:03.149Z,9.23
2018-03-29T13:15:03.039Z,9.08
2018-03-29T13:16:02.933Z,8.92
2018-03-29T13:17:02.844Z,8.84